Time;durP1;ratioP1;P1;durP2;ratioP2;P2;SDS_P1;SDS_P2;PMS_P1;PMS_P2;Temp;Humidity;BMP_temperature;BMP_pressure;BME280_temperature;BME280_humidity;BME280_pressure;Samples;Min_cycle;Max_cycle;Signal;HPM_P1;HPM_P2
2022/10/21 00:00:13;;;;;;;;;;;17.80;91.00;;;;;;5059620;28;19959;-60
2022/10/21 00:02:38;;;;;;;;;;;17.80;91.10;;;;;;5059990;28;19909;-60
2022/10/21 00:05:04;;;;;;;;;;;17.80;91.40;;;;;;5060021;28;19909;-60
2022/10/21 00:07:30;;;;;;;;;;;17.80;91.20;;;;;;5059701;28;19913;-60
2022/10/21 00:09:55;;;;;;;;;;;17.80;91.00;;;;;;5060067;28;19928;-60
2022/10/21 00:12:21;;;;;;;;;;;17.70;90.60;;;;;;5059797;28;19909;-60
2022/10/21 00:14:46;;;;;;;;;;;17.70;90.30;;;;;;5059904;28;19908;-60
2022/10/21 00:17:12;;;;;;;;;;;17.70;90.20;;;;;;5059639;28;19909;-60
2022/10/21 00:19:38;;;;;;;;;;;17.70;89.50;;;;;;5059632;28;19909;-60
2022/10/21 00:22:04;;;;;;;;;;;17.70;89.40;;;;;;5059322;28;20003;-60
2022/10/21 00:24:30;;;;;;;;;;;17.60;89.10;;;;;;5059642;28;19924;-60
2022/10/21 00:26:55;;;;;;;;;;;17.60;89.30;;;;;;5059331;28;19909;-60
2022/10/21 00:29:21;;;;;;;;;;;17.60;89.20;;;;;;5058851;28;19909;-60
2022/10/21 00:31:47;;;;;;;;;;;17.60;89.40;;;;;;5058994;28;19916;-60
2022/10/21 00:34:12;;;;;;;;;;;17.60;89.70;;;;;;5059113;28;19909;-60
2022/10/21 00:36:38;;;;;;;;;;;17.60;89.80;;;;;;5059125;28;20406;-60
2022/10/21 00:39:03;;;;;;;;;;;17.60;90.00;;;;;;5059028;28;19909;-60
2022/10/21 00:41:29;;;;;;;;;;;17.60;90.00;;;;;;5059708;28;20031;-60
2022/10/21 00:43:59;;;;;;;;;;;17.60;90.00;;;;;;5059254;28;19963;-60
2022/10/21 00:46:31;;;;;;;;;;;17.60;90.00;;;;;;5059161;28;19915;-60
2022/10/21 00:48:57;;;;;;;;;;;17.50;90.00;;;;;;5059215;28;19908;-60
2022/10/21 00:51:23;;;;;;;;;;;17.50;90.00;;;;;;5058973;28;19980;-60
2022/10/21 00:53:49;;;;;;;;;;;17.60;90.10;;;;;;5059083;28;19916;-60
2022/10/21 00:56:17;;;;;;;;;;;17.50;90.10;;;;;;5058772;28;19916;-60
2022/10/21 00:58:42;;;;;;;;;;;17.50;90.20;;;;;;5058987;28;19909;-60
2022/10/21 01:01:08;;;;;;;;;;;17.50;90.10;;;;;;5058651;28;20260;-60
2022/10/21 01:03:34;;;;;;;;;;;17.50;90.20;;;;;;5058630;28;19931;-60
2022/10/21 01:06:02;;;;;;;;;;;17.50;90.20;;;;;;5058113;28;19925;-60
2022/10/21 01:08:28;;;;;;;;;;;17.50;90.40;;;;;;5058759;28;19909;-60
2022/10/21 01:10:53;;;;;;;;;;;17.50;90.30;;;;;;5058706;28;19913;-60
2022/10/21 01:13:42;;;;;;;;;;;17.50;90.40;;;;;;5058662;28;20289;-60
2022/10/21 01:16:07;;;;;;;;;;;17.50;90.50;;;;;;5057891;28;19909;-60
2022/10/21 01:18:33;;;;;;;;;;;17.50;90.70;;;;;;5058635;28;19935;-60
2022/10/21 01:20:59;;;;;;;;;;;17.50;90.60;;;;;;5058304;28;19916;-60
2022/10/21 01:23:42;;;;;;;;;;;17.60;90.60;;;;;;5058301;28;19912;-60
2022/10/21 01:26:26;;;;;;;;;;;17.60;90.60;;;;;;5058701;28;19915;-60
2022/10/21 01:29:12;;;;;;;;;;;17.60;90.90;;;;;;5058397;28;19916;-60
2022/10/21 01:31:56;;;;;;;;;;;17.60;90.80;;;;;;5058169;28;19913;-60
2022/10/21 01:34:57;;;;;;;;;;;17.70;91.20;;;;;;5058449;28;20380;-60
2022/10/21 01:37:32;;;;;;;;;;;17.70;91.00;;;;;;5055967;28;19909;-60
2022/10/21 01:40:00;;;;;;;;;;;17.70;91.20;;;;;;5057580;28;19913;-60
2022/10/21 01:42:38;;;;;;;;;;;17.70;91.10;;;;;;5058245;28;20377;-60
2022/10/21 01:45:03;;;;;;;;;;;17.70;91.00;;;;;;5057982;28;19909;-60
2022/10/21 01:47:33;;;;;;;;;;;17.70;91.10;;;;;;5058197;28;19947;-60
2022/10/21 01:50:02;;;;;;;;;;;17.70;90.90;;;;;;5057984;28;19912;-60
2022/10/21 01:52:28;;;;;;;;;;;17.70;91.00;;;;;;5057992;28;19913;-60
2022/10/21 01:54:57;;;;;;;;;;;17.70;90.90;;;;;;5058230;28;19924;-60
2022/10/21 01:57:25;;;;;;;;;;;17.70;90.90;;;;;;5058190;28;19959;-60
2022/10/21 01:59:52;;;;;;;;;;;17.70;90.90;;;;;;5057975;28;20334;-60
2022/10/21 02:02:19;;;;;;;;;;;17.70;90.90;;;;;;5057559;28;20360;-60
2022/10/21 02:04:46;;;;;;;;;;;17.60;91.00;;;;;;5057703;28;19909;-60
2022/10/21 02:07:12;;;;;;;;;;;17.60;91.20;;;;;;5057479;28;19921;-60
2022/10/21 02:09:37;;;;;;;;;;;17.60;91.10;;;;;;5057549;28;20447;-60
2022/10/21 02:12:04;;;;;;;;;;;17.60;91.20;;;;;;5057989;28;19944;-60
2022/10/21 02:14:41;;;;;;;;;;;17.60;91.30;;;;;;5057829;28;19964;-60
2022/10/21 02:17:09;;;;;;;;;;;17.60;91.20;;;;;;5057606;28;19909;-60
2022/10/21 02:19:35;;;;;;;;;;;17.60;91.30;;;;;;5061970;28;20335;-60
2022/10/21 02:22:01;;;;;;;;;;;17.60;91.50;;;;;;5061718;28;19912;-60
2022/10/21 02:24:27;;;;;;;;;;;17.60;91.70;;;;;;5061708;28;19909;-60
2022/10/21 02:26:53;;;;;;;;;;;17.60;91.80;;;;;;5062112;28;19908;-60
2022/10/21 02:29:25;;;;;;;;;;;17.60;91.80;;;;;;5061807;28;19909;-60
2022/10/21 02:31:51;;;;;;;;;;;17.70;91.80;;;;;;5061914;28;19909;-60
2022/10/21 02:34:35;;;;;;;;;;;17.60;91.60;;;;;;5061698;28;19971;-60
2022/10/21 02:37:12;;;;;;;;;;;17.60;91.80;;;;;;5061395;28;19966;-60
2022/10/21 02:39:50;;;;;;;;;;;17.60;91.80;;;;;;5061574;28;20019;-60
2022/10/21 02:42:19;;;;;;;;;;;17.60;91.80;;;;;;5061375;28;19992;-60
2022/10/21 02:44:44;;;;;;;;;;;17.60;91.70;;;;;;5061481;28;20007;-60
2022/10/21 02:47:10;;;;;;;;;;;17.60;91.60;;;;;;5061705;28;19948;-60
2022/10/21 02:49:36;;;;;;;;;;;17.60;91.70;;;;;;5061323;28;19913;-60
2022/10/21 02:52:01;;;;;;;;;;;17.60;92.00;;;;;;5061626;28;19973;-60
2022/10/21 02:54:27;;;;;;;;;;;17.60;92.40;;;;;;5061369;28;19909;-60
2022/10/21 02:56:52;;;;;;;;;;;17.60;92.70;;;;;;5061340;28;19909;-60
2022/10/21 02:59:18;;;;;;;;;;;17.60;93.40;;;;;;5060984;28;20319;-60
2022/10/21 03:01:43;;;;;;;;;;;17.60;93.80;;;;;;5060764;28;20003;-61
2022/10/21 03:04:09;;;;;;;;;;;17.50;93.80;;;;;;5061099;28;19909;-60
2022/10/21 03:06:35;;;;;;;;;;;17.50;93.90;;;;;;5060775;28;19978;-60
2022/10/21 03:09:00;;;;;;;;;;;17.50;94.00;;;;;;5060782;28;19915;-60
2022/10/21 03:11:26;;;;;;;;;;;17.40;93.70;;;;;;5060920;28;19939;-60
2022/10/21 03:13:51;;;;;;;;;;;17.40;93.70;;;;;;5060904;28;20322;-60
2022/10/21 03:16:17;;;;;;;;;;;17.40;94.40;;;;;;5061157;28;19909;-61
2022/10/21 03:18:42;;;;;;;;;;;17.30;94.40;;;;;;5060909;28;19908;-62
2022/10/21 03:21:08;;;;;;;;;;;17.30;94.70;;;;;;5060830;28;19948;-62
2022/10/21 03:23:34;;;;;;;;;;;17.20;95.10;;;;;;5060538;28;20382;-61
2022/10/21 03:25:59;;;;;;;;;;;17.20;95.60;;;;;;5060440;28;19909;-61
2022/10/21 03:28:25;;;;;;;;;;;17.10;95.20;;;;;;5060639;28;19911;-60
2022/10/21 03:30:50;;;;;;;;;;;17.10;95.90;;;;;;5060595;28;20007;-60
2022/10/21 03:33:16;;;;;;;;;;;17.10;96.60;;;;;;5060397;28;19954;-60
2022/10/21 03:35:42;;;;;;;;;;;17.00;96.50;;;;;;5061088;28;19915;-60
2022/10/21 03:38:07;;;;;;;;;;;17.00;96.60;;;;;;5060294;28;19909;-60
2022/10/21 03:40:33;;;;;;;;;;;17.00;96.30;;;;;;5060300;28;19915;-60
2022/10/21 03:42:58;;;;;;;;;;;16.90;96.50;;;;;;5060164;28;19916;-60
2022/10/21 03:45:24;;;;;;;;;;;16.90;96.00;;;;;;5060479;28;19916;-60
2022/10/21 03:47:51;;;;;;;;;;;16.90;96.40;;;;;;5060465;28;19923;-60
2022/10/21 03:50:16;;;;;;;;;;;16.90;96.40;;;;;;5059755;28;19935;-60
2022/10/21 03:52:42;;;;;;;;;;;16.90;96.40;;;;;;5060468;28;19909;-60
2022/10/21 03:55:08;;;;;;;;;;;16.80;95.90;;;;;;5059976;28;19916;-59
2022/10/21 03:57:33;;;;;;;;;;;16.90;96.20;;;;;;5060322;28;19916;-59
2022/10/21 03:59:59;;;;;;;;;;;16.80;95.90;;;;;;5060385;28;20376;-59
2022/10/21 04:02:25;;;;;;;;;;;16.80;96.10;;;;;;5059943;28;19915;-60
2022/10/21 04:04:50;;;;;;;;;;;16.80;95.90;;;;;;5059959;28;20284;-59
2022/10/21 04:07:16;;;;;;;;;;;16.80;95.90;;;;;;5059494;28;20389;-59
2022/10/21 04:09:41;;;;;;;;;;;16.80;96.00;;;;;;5059642;28;19912;-60
2022/10/21 04:12:07;;;;;;;;;;;16.80;96.20;;;;;;5059848;28;19949;-59
2022/10/21 04:14:33;;;;;;;;;;;16.80;96.00;;;;;;5059939;28;19909;-59
2022/10/21 04:16:58;;;;;;;;;;;16.80;96.10;;;;;;5059572;28;19924;-60
2022/10/21 04:19:24;;;;;;;;;;;16.80;95.90;;;;;;5059812;28;19909;-60
2022/10/21 04:21:49;;;;;;;;;;;16.70;96.20;;;;;;5059671;28;20268;-59
2022/10/21 04:24:15;;;;;;;;;;;16.70;96.10;;;;;;5059398;28;19909;-59
2022/10/21 04:26:41;;;;;;;;;;;16.70;95.80;;;;;;5059843;28;19915;-60
2022/10/21 04:29:07;;;;;;;;;;;16.80;95.80;;;;;;5059253;28;19955;-59
2022/10/21 04:31:32;;;;;;;;;;;16.80;95.90;;;;;;5059716;28;19913;-59
2022/10/21 04:33:58;;;;;;;;;;;16.70;96.10;;;;;;5059421;28;19909;-59
2022/10/21 04:36:24;;;;;;;;;;;16.70;96.10;;;;;;5059336;28;20026;-59
2022/10/21 04:38:49;;;;;;;;;;;16.70;95.80;;;;;;5059339;28;19916;-59
2022/10/21 04:41:15;;;;;;;;;;;16.70;96.20;;;;;;5058504;28;19915;-60
2022/10/21 04:43:40;;;;;;;;;;;16.70;96.00;;;;;;5059022;28;20383;-60
2022/10/21 04:46:10;;;;;;;;;;;16.70;96.10;;;;;;5059270;28;19916;-59
2022/10/21 04:48:36;;;;;;;;;;;16.70;96.20;;;;;;5059085;28;19938;-59
2022/10/21 04:51:02;;;;;;;;;;;16.70;96.40;;;;;;5058773;28;19913;-60
2022/10/21 04:53:27;;;;;;;;;;;16.70;96.00;;;;;;5059210;28;19909;-60
2022/10/21 04:55:53;;;;;;;;;;;16.70;96.20;;;;;;5059170;28;19934;-59
2022/10/21 04:58:19;;;;;;;;;;;16.70;96.10;;;;;;5058975;28;19909;-60
2022/10/21 05:00:44;;;;;;;;;;;16.70;96.00;;;;;;5058992;28;19932;-60
2022/10/21 05:03:10;;;;;;;;;;;16.70;95.80;;;;;;5058872;28;19912;-60
2022/10/21 05:05:36;;;;;;;;;;;16.70;95.80;;;;;;5058435;28;19924;-60
2022/10/21 05:08:01;;;;;;;;;;;16.70;95.90;;;;;;5058577;28;20341;-59
2022/10/21 05:10:29;;;;;;;;;;;16.70;96.10;;;;;;5058578;28;19943;-59
2022/10/21 05:12:56;;;;;;;;;;;16.70;95.80;;;;;;5058557;28;19912;-60
2022/10/21 05:15:22;;;;;;;;;;;16.70;96.30;;;;;;5058496;28;19909;-60
2022/10/21 05:17:47;;;;;;;;;;;16.70;96.00;;;;;;5058565;28;20332;-60
2022/10/21 05:20:13;;;;;;;;;;;16.70;96.10;;;;;;5058537;28;19908;-60
2022/10/21 05:22:39;;;;;;;;;;;16.70;96.10;;;;;;5058529;28;20261;-60
2022/10/21 05:25:04;;;;;;;;;;;16.70;95.80;;;;;;5058517;28;19915;-60
2022/10/21 05:27:30;;;;;;;;;;;16.70;96.20;;;;;;5058457;28;20379;-60
2022/10/21 05:29:57;;;;;;;;;;;16.70;96.10;;;;;;5058255;28;20007;-60
2022/10/21 05:32:22;;;;;;;;;;;16.70;95.70;;;;;;5058763;28;19931;-59
2022/10/21 05:34:48;;;;;;;;;;;16.70;95.90;;;;;;5058293;28;20380;-59
2022/10/21 05:37:14;;;;;;;;;;;16.70;95.60;;;;;;5058526;28;20358;-60
2022/10/21 05:39:39;;;;;;;;;;;16.70;95.90;;;;;;5058077;28;19909;-60
2022/10/21 05:42:05;;;;;;;;;;;16.70;95.80;;;;;;5058297;28;19909;-59
2022/10/21 05:44:30;;;;;;;;;;;16.70;95.80;;;;;;5058205;28;19913;-60
2022/10/21 05:46:56;;;;;;;;;;;16.70;95.80;;;;;;5058435;28;19913;-60
2022/10/21 05:49:22;;;;;;;;;;;16.70;96.10;;;;;;5057823;28;19912;-60
2022/10/21 05:51:48;;;;;;;;;;;16.60;96.40;;;;;;5058064;28;19945;-60
2022/10/21 05:54:13;;;;;;;;;;;16.60;96.60;;;;;;5058025;28;20372;-60
2022/10/21 05:56:41;;;;;;;;;;;16.70;96.40;;;;;;5057565;28;19931;-60
2022/10/21 05:59:07;;;;;;;;;;;16.60;96.50;;;;;;5057489;28;19916;-61
2022/10/21 06:01:33;;;;;;;;;;;16.70;96.60;;;;;;5057931;28;19916;-60
2022/10/21 06:03:58;;;;;;;;;;;16.60;96.50;;;;;;5057727;28;19908;-60
2022/10/21 06:06:24;;;;;;;;;;;16.60;96.70;;;;;;5057194;28;19920;-60
2022/10/21 06:08:50;;;;;;;;;;;16.60;96.60;;;;;;5057771;28;19992;-60
2022/10/21 06:11:17;;;;;;;;;;;16.60;96.20;;;;;;5057951;28;19913;-60
2022/10/21 06:13:42;;;;;;;;;;;16.50;96.60;;;;;;5057554;28;19909;-60
2022/10/21 06:16:08;;;;;;;;;;;16.50;96.70;;;;;;5057778;28;19951;-60
2022/10/21 06:18:34;;;;;;;;;;;16.50;96.50;;;;;;5057426;28;19959;-60
2022/10/21 06:21:00;;;;;;;;;;;16.50;96.50;;;;;;5057916;28;19916;-60
2022/10/21 06:23:26;;;;;;;;;;;16.50;96.70;;;;;;5057482;28;19909;-60
2022/10/21 06:25:57;;;;;;;;;;;16.50;96.30;;;;;;5057442;28;19909;-60
2022/10/21 06:28:23;;;;;;;;;;;16.40;96.60;;;;;;5057589;28;19954;-60
2022/10/21 06:30:48;;;;;;;;;;;16.40;96.70;;;;;;5057345;28;19913;-60
2022/10/21 06:33:14;;;;;;;;;;;16.40;96.70;;;;;;5057744;28;19909;-60
2022/10/21 06:35:40;;;;;;;;;;;16.40;96.60;;;;;;5057682;28;20544;-60
2022/10/21 06:38:05;;;;;;;;;;;16.40;96.80;;;;;;5057729;28;20297;-59
2022/10/21 06:40:31;;;;;;;;;;;16.40;96.90;;;;;;5057305;28;19982;-60
2022/10/21 06:42:57;;;;;;;;;;;16.40;96.60;;;;;;5057214;28;19916;-60
2022/10/21 06:45:22;;;;;;;;;;;16.40;96.70;;;;;;5057515;28;19909;-59
2022/10/21 06:47:48;;;;;;;;;;;16.40;96.70;;;;;;5057151;28;19909;-60
2022/10/21 06:50:13;;;;;;;;;;;16.40;96.70;;;;;;5057080;28;20383;-59
2022/10/21 06:52:39;;;;;;;;;;;16.40;96.90;;;;;;5055809;28;19915;-60
2022/10/21 06:55:05;;;;;;;;;;;16.40;96.80;;;;;;5056835;28;19948;-59
2022/10/21 06:57:31;;;;;;;;;;;16.40;97.00;;;;;;5057223;28;19913;-60
2022/10/21 06:59:57;;;;;;;;;;;16.40;96.70;;;;;;5057252;28;19945;-59
2022/10/21 07:02:25;;;;;;;;;;;16.40;96.70;;;;;;5057182;28;19910;-59
2022/10/21 07:04:51;;;;;;;;;;;16.40;96.50;;;;;;5059759;28;19966;-60
2022/10/21 07:07:17;;;;;;;;;;;16.40;96.40;;;;;;5060309;28;19921;-59
2022/10/21 07:09:43;;;;;;;;;;;16.40;96.40;;;;;;5060760;28;20412;-60
2022/10/21 07:12:09;;;;;;;;;;;16.40;96.40;;;;;;5060645;28;19909;-60
2022/10/21 07:14:34;;;;;;;;;;;16.40;96.50;;;;;;5061034;28;19932;-60
2022/10/21 07:17:00;;;;;;;;;;;16.40;96.40;;;;;;5060754;28;20007;-60
2022/10/21 07:19:25;;;;;;;;;;;16.40;96.30;;;;;;5060544;28;19909;-60
2022/10/21 07:21:51;;;;;;;;;;;16.40;96.30;;;;;;5060407;28;20292;-59
2022/10/21 07:24:17;;;;;;;;;;;16.40;96.00;;;;;;5060199;28;19908;-59
2022/10/21 07:26:42;;;;;;;;;;;16.40;95.90;;;;;;5060357;28;19909;-60
2022/10/21 07:29:08;;;;;;;;;;;16.40;95.80;;;;;;5060756;28;19909;-60
2022/10/21 07:31:35;;;;;;;;;;;16.40;96.00;;;;;;5060181;28;20292;-60
2022/10/21 07:34:01;;;;;;;;;;;16.40;95.90;;;;;;5060201;28;19908;-60
2022/10/21 07:36:29;;;;;;;;;;;16.40;96.20;;;;;;5060315;28;19947;-60
2022/10/21 07:38:56;;;;;;;;;;;16.40;95.90;;;;;;5060286;28;19908;-60
2022/10/21 07:41:24;;;;;;;;;;;16.40;95.80;;;;;;5060400;28;19908;-60
2022/10/21 07:43:50;;;;;;;;;;;16.40;96.00;;;;;;5060253;28;20306;-59
2022/10/21 07:46:16;;;;;;;;;;;16.40;96.10;;;;;;5059976;28;19972;-60
2022/10/21 07:48:42;;;;;;;;;;;16.40;95.80;;;;;;5059917;28;19916;-60
2022/10/21 07:51:09;;;;;;;;;;;16.50;95.90;;;;;;5060081;28;19912;-59
2022/10/21 07:53:34;;;;;;;;;;;16.50;95.80;;;;;;5059822;28;19931;-59
2022/10/21 07:56:01;;;;;;;;;;;16.50;95.90;;;;;;5059875;28;19984;-60
2022/10/21 07:58:27;;;;;;;;;;;16.50;95.80;;;;;;5060091;28;20062;-60
2022/10/21 08:00:56;;;;;;;;;;;16.50;96.00;;;;;;5059959;28;19956;-60
2022/10/21 08:03:21;;;;;;;;;;;16.50;95.70;;;;;;5059582;28;20003;-59
2022/10/21 08:05:47;;;;;;;;;;;16.50;95.50;;;;;;5059698;28;19928;-59
2022/10/21 08:08:12;;;;;;;;;;;16.60;95.50;;;;;;5059789;28;19923;-59
2022/10/21 08:10:39;;;;;;;;;;;16.60;95.60;;;;;;5059871;28;19935;-59
2022/10/21 08:13:04;;;;;;;;;;;16.60;95.50;;;;;;5059420;28;20003;-60
2022/10/21 08:15:30;;;;;;;;;;;16.60;95.50;;;;;;5059192;28;20078;-59
2022/10/21 08:17:55;;;;;;;;;;;16.60;95.30;;;;;;5059604;28;19960;-59
2022/10/21 08:20:21;;;;;;;;;;;16.70;95.20;;;;;;5059385;28;20339;-59
2022/10/21 08:22:47;;;;;;;;;;;16.60;95.10;;;;;;5059263;28;19909;-60
2022/10/21 08:25:15;;;;;;;;;;;16.60;94.90;;;;;;5059602;28;19935;-59
2022/10/21 08:27:41;;;;;;;;;;;16.70;94.80;;;;;;5059126;28;19915;-59
2022/10/21 08:30:07;;;;;;;;;;;16.70;94.90;;;;;;5058918;28;19944;-60
2022/10/21 08:32:32;;;;;;;;;;;16.70;94.70;;;;;;5059449;28;19951;-59
2022/10/21 08:34:58;;;;;;;;;;;16.70;94.70;;;;;;5059517;28;19908;-59
2022/10/21 08:37:24;;;;;;;;;;;16.80;94.80;;;;;;5059134;28;19916;-60
2022/10/21 08:39:49;;;;;;;;;;;16.80;94.60;;;;;;5059149;28;19916;-60
2022/10/21 08:42:16;;;;;;;;;;;16.80;94.70;;;;;;5059059;28;20380;-59
2022/10/21 08:44:44;;;;;;;;;;;16.90;94.70;;;;;;5058974;28;19909;-59
2022/10/21 08:47:13;;;;;;;;;;;16.90;94.50;;;;;;5058950;28;20326;-59
2022/10/21 08:49:43;;;;;;;;;;;16.90;94.30;;;;;;5059198;28;19908;-60
2022/10/21 08:52:12;;;;;;;;;;;17.00;94.60;;;;;;5059000;28;19987;-59
2022/10/21 08:54:50;;;;;;;;;;;17.00;94.50;;;;;;5058979;28;19909;-59
2022/10/21 08:57:15;;;;;;;;;;;17.10;94.30;;;;;;5058927;28;19909;-59
2022/10/21 08:59:41;;;;;;;;;;;17.10;94.40;;;;;;5058703;28;19916;-59
2022/10/21 09:02:26;;;;;;;;;;;17.10;94.40;;;;;;5058676;28;19916;-60
2022/10/21 09:05:10;;;;;;;;;;;17.20;94.40;;;;;;5058724;28;20306;-59
2022/10/21 09:07:50;;;;;;;;;;;17.20;94.30;;;;;;5058626;28;19927;-59
2022/10/21 09:10:24;;;;;;;;;;;17.30;94.30;;;;;;5058377;28;19913;-59
2022/10/21 09:12:50;;;;;;;;;;;17.30;94.20;;;;;;5058719;28;19909;-60
2022/10/21 09:15:22;;;;;;;;;;;17.40;94.20;;;;;;5057131;28;20158;-60
2022/10/21 09:17:57;;;;;;;;;;;17.50;94.10;;;;;;5058102;28;19916;-59
2022/10/21 09:20:26;;;;;;;;;;;17.50;94.00;;;;;;5058229;28;19909;-60
2022/10/21 09:22:51;;;;;;;;;;;17.50;94.00;;;;;;5058761;28;19958;-60
2022/10/21 09:25:26;;;;;;;;;;;17.60;94.00;;;;;;5058243;28;19913;-60
2022/10/21 09:27:52;;;;;;;;;;;17.60;93.80;;;;;;5057955;28;19980;-59
2022/10/21 09:30:20;;;;;;;;;;;17.70;93.70;;;;;;5058047;28;19916;-59
2022/10/21 09:32:49;;;;;;;;;;;17.80;93.80;;;;;;5057875;28;20384;-60
2022/10/21 09:35:30;;;;;;;;;;;17.90;93.60;;;;;;5057983;28;19962;-59
2022/10/21 09:37:59;;;;;;;;;;;17.90;93.70;;;;;;5058206;28;19909;-60
2022/10/21 09:40:27;;;;;;;;;;;18.10;93.30;;;;;;5058060;28;19909;-60
2022/10/21 09:42:54;;;;;;;;;;;18.20;93.50;;;;;;5056662;28;20323;-60
2022/10/21 09:45:35;;;;;;;;;;;18.30;93.00;;;;;;5058120;28;19909;-60
2022/10/21 09:48:06;;;;;;;;;;;18.40;93.40;;;;;;5057684;28;19913;-60
2022/10/21 09:50:32;;;;;;;;;;;18.50;92.40;;;;;;5057563;28;19924;-60
2022/10/21 09:53:10;;;;;;;;;;;18.60;92.10;;;;;;5058195;28;19958;-60
2022/10/21 09:55:37;;;;;;;;;;;18.70;92.40;;;;;;5058273;28;19909;-60
2022/10/21 09:58:03;;;;;;;;;;;18.80;91.80;;;;;;5057675;28;19933;-60
2022/10/21 10:00:43;;;;;;;;;;;18.90;91.50;;;;;;5058007;28;19909;-59
2022/10/21 10:03:09;;;;;;;;;;;19.00;91.70;;;;;;5058085;28;19916;-60
2022/10/21 10:05:37;;;;;;;;;;;19.10;91.00;;;;;;5057661;28;19913;-60
2022/10/21 10:08:19;;;;;;;;;;;19.10;90.60;;;;;;5057173;28;20413;-60
2022/10/21 10:10:44;;;;;;;;;;;19.20;90.60;;;;;;5057655;28;20039;-62
2022/10/21 10:13:13;;;;;;;;;;;19.30;90.90;;;;;;5057717;28;20431;-63
2022/10/21 10:15:38;;;;;;;;;;;19.30;90.40;;;;;;5057567;28;19916;-63
2022/10/21 10:18:17;;;;;;;;;;;19.50;90.30;;;;;;5057956;28;19909;-62
2022/10/21 10:20:42;;;;;;;;;;;19.50;91.10;;;;;;5057513;28;20343;-62
2022/10/21 10:23:14;;;;;;;;;;;19.60;90.60;;;;;;5057745;28;19908;-62
2022/10/21 10:25:39;;;;;;;;;;;19.70;89.90;;;;;;5057677;28;19995;-62
2022/10/21 10:28:08;;;;;;;;;;;19.80;90.60;;;;;;5057536;28;20416;-62
2022/10/21 10:30:36;;;;;;;;;;;19.90;90.70;;;;;;5057413;28;19932;-60
2022/10/21 10:33:06;;;;;;;;;;;20.00;89.70;;;;;;5057653;28;19909;-61
2022/10/21 10:35:33;;;;;;;;;;;20.00;90.40;;;;;;5057605;28;20338;-61
2022/10/21 10:38:01;;;;;;;;;;;20.10;90.20;;;;;;5057428;28;20280;-61
2022/10/21 10:40:40;;;;;;;;;;;20.20;90.10;;;;;;5060976;28;19909;-61
2022/10/21 10:43:44;;;;;;;;;;;20.30;88.60;;;;;;5061092;28;19909;-62
2022/10/21 10:46:15;;;;;;;;;;;20.40;90.30;;;;;;5059790;28;19978;-61
2022/10/21 10:48:43;;;;;;;;;;;20.50;89.80;;;;;;5058977;28;20003;-61
2022/10/21 10:51:26;;;;;;;;;;;20.50;88.20;;;;;;5060002;28;19920;-61
2022/10/21 10:54:00;;;;;;;;;;;20.50;85.70;;;;;;5061126;28;19912;-61
2022/10/21 10:56:28;;;;;;;;;;;20.40;85.40;;;;;;5061258;28;19916;-61
2022/10/21 10:59:09;;;;;;;;;;;20.40;83.10;;;;;;5061276;28;20000;-61
2022/10/21 11:01:38;;;;;;;;;;;20.30;84.70;;;;;;5061005;28;19916;-61
2022/10/21 11:04:26;;;;;;;;;;;20.30;86.80;;;;;;5061353;28;19909;-61
2022/10/21 11:06:55;;;;;;;;;;;20.20;86.10;;;;;;5060532;28;19966;-61
2022/10/21 11:09:22;;;;;;;;;;;20.10;87.10;;;;;;5060794;28;20265;-61
2022/10/21 11:11:52;;;;;;;;;;;20.00;86.90;;;;;;5060854;28;19917;-61
2022/10/21 11:14:18;;;;;;;;;;;20.00;87.60;;;;;;5060709;28;20324;-61
2022/10/21 11:16:46;;;;;;;;;;;20.00;87.60;;;;;;5060807;28;19923;-60
2022/10/21 11:19:17;;;;;;;;;;;20.10;89.10;;;;;;5060586;28;19959;-61
2022/10/21 11:21:44;;;;;;;;;;;20.20;86.90;;;;;;5060616;28;19988;-61
2022/10/21 11:24:12;;;;;;;;;;;20.30;86.00;;;;;;5060373;28;20008;-60
2022/10/21 11:26:56;;;;;;;;;;;20.30;86.10;;;;;;5060530;28;19909;-61
2022/10/21 11:29:28;;;;;;;;;;;20.30;86.70;;;;;;5060891;28;20273;-61
2022/10/21 11:32:06;;;;;;;;;;;20.30;84.80;;;;;;5060345;28;20463;-61
2022/10/21 11:34:32;;;;;;;;;;;20.40;85.90;;;;;;5060827;28;19913;-62
2022/10/21 11:36:58;;;;;;;;;;;20.50;83.50;;;;;;5060467;28;19908;-61
2022/10/21 11:39:32;;;;;;;;;;;20.50;84.60;;;;;;5060230;28;19945;-61
2022/10/21 11:41:58;;;;;;;;;;;20.50;83.40;;;;;;5060485;28;19909;-61
2022/10/21 11:44:26;;;;;;;;;;;20.50;82.50;;;;;;5060321;28;19909;-61
2022/10/21 11:47:11;;;;;;;;;;;20.50;81.50;;;;;;5060290;28;19908;-61
2022/10/21 11:49:55;;;;;;;;;;;20.60;85.10;;;;;;5059526;28;19950;-61
2022/10/21 11:52:20;;;;;;;;;;;20.70;83.30;;;;;;5060035;28;19962;-61
2022/10/21 11:54:49;;;;;;;;;;;20.90;84.00;;;;;;5060237;28;19909;-61
2022/10/21 11:57:21;;;;;;;;;;;21.00;83.80;;;;;;5059946;28;19909;-61
2022/10/21 11:59:59;;;;;;;;;;;21.00;84.30;;;;;;5060141;28;19916;-61
2022/10/21 12:02:25;;;;;;;;;;;21.10;83.90;;;;;;5060067;28;19909;-61
2022/10/21 12:05:02;;;;;;;;;;;21.10;83.60;;;;;;5059945;28;20352;-62
2022/10/21 12:07:34;;;;;;;;;;;21.30;83.20;;;;;;5058209;28;19923;-62
2022/10/21 12:10:18;;;;;;;;;;;21.40;82.80;;;;;;5059721;28;20277;-62
2022/10/21 12:12:46;;;;;;;;;;;21.60;82.70;;;;;;5059811;28;19909;-62
2022/10/21 12:15:20;;;;;;;;;;;21.70;81.30;;;;;;5060008;28;20297;-62
2022/10/21 12:17:47;;;;;;;;;;;21.80;81.80;;;;;;5059753;28;20283;-62
2022/10/21 12:20:15;;;;;;;;;;;21.90;82.50;;;;;;5059597;28;19944;-61
2022/10/21 12:22:41;;;;;;;;;;;21.90;80.30;;;;;;5059531;28;19915;-62
2022/10/21 12:25:07;;;;;;;;;;;21.80;78.50;;;;;;5059517;28;19909;-62
2022/10/21 12:27:39;;;;;;;;;;;21.70;78.60;;;;;;5059581;28;19964;-62
2022/10/21 12:30:04;;;;;;;;;;;21.70;83.30;;;;;;5059087;28;19913;-61
2022/10/21 12:33:05;;;;;;;;;;;21.50;81.80;;;;;;5059487;28;19909;-62
2022/10/21 12:35:43;;;;;;;;;;;21.40;82.20;;;;;;5057060;28;19913;-62
2022/10/21 12:38:20;;;;;;;;;;;21.40;79.80;;;;;;5054801;28;19931;-61
2022/10/21 12:40:47;;;;;;;;;;;21.30;80.20;;;;;;5058748;28;20361;-61
2022/10/21 12:43:18;;;;;;;;;;;21.10;79.70;;;;;;5058986;28;19916;-61
2022/10/21 12:45:44;;;;;;;;;;;20.80;81.80;;;;;;5059080;28;20261;-62
2022/10/21 12:48:29;;;;;;;;;;;20.70;83.20;;;;;;5059172;28;19909;-61
2022/10/21 12:50:57;;;;;;;;;;;20.50;83.30;;;;;;5058732;28;20023;-60
2022/10/21 12:53:45;;;;;;;;;;;20.40;83.80;;;;;;5059306;28;19916;-61
2022/10/21 12:56:23;;;;;;;;;;;20.30;84.30;;;;;;5058642;28;20003;-61
2022/10/21 12:58:55;;;;;;;;;;;20.10;86.80;;;;;;5058882;28;20353;-61
2022/10/21 13:01:34;;;;;;;;;;;20.00;89.00;;;;;;5058170;28;20272;-61
2022/10/21 13:04:00;;;;;;;;;;;19.80;88.10;;;;;;5058565;28;19908;-61
2022/10/21 13:06:44;;;;;;;;;;;19.60;88.10;;;;;;5058449;28;19970;-61
2022/10/21 13:09:29;;;;;;;;;;;19.40;88.70;;;;;;5058743;28;19932;-61
2022/10/21 13:12:09;;;;;;;;;;;19.20;90.10;;;;;;5058611;28;20288;-61
2022/10/21 13:14:50;;;;;;;;;;;19.10;90.30;;;;;;5058649;28;19916;-61
2022/10/21 13:17:22;;;;;;;;;;;19.00;90.50;;;;;;5058602;28;19909;-61
2022/10/21 13:19:47;;;;;;;;;;;18.90;90.50;;;;;;5058251;28;20387;-61
2022/10/21 13:22:33;;;;;;;;;;;18.80;90.50;;;;;;5058548;28;19909;-61
2022/10/21 13:25:17;;;;;;;;;;;18.60;91.10;;;;;;5058031;28;19984;-61
2022/10/21 13:27:45;;;;;;;;;;;18.60;91.40;;;;;;5058762;28;19959;-61
2022/10/21 13:30:25;;;;;;;;;;;18.50;92.00;;;;;;5058058;28;19913;-62
2022/10/21 13:33:01;;;;;;;;;;;18.50;92.00;;;;;;5057839;28;19913;-61
2022/10/21 13:35:35;;;;;;;;;;;18.40;92.30;;;;;;5058046;28;19964;-62
2022/10/21 13:38:16;;;;;;;;;;;18.30;93.10;;;;;;5057924;28;20008;-62
2022/10/21 13:40:49;;;;;;;;;;;18.30;93.20;;;;;;5058164;28;19913;-61
2022/10/21 13:43:27;;;;;;;;;;;18.20;93.40;;;;;;5058041;28;19909;-62
2022/10/21 13:46:14;;;;;;;;;;;18.10;93.80;;;;;;5057640;28;20375;-62
2022/10/21 13:48:41;;;;;;;;;;;18.10;93.80;;;;;;5057756;28;19940;-62
2022/10/21 13:51:16;;;;;;;;;;;18.00;93.70;;;;;;5057725;28;19913;-62
2022/10/21 13:53:44;;;;;;;;;;;17.90;94.00;;;;;;5057826;28;19909;-62
2022/10/21 13:56:21;;;;;;;;;;;17.80;93.90;;;;;;5057944;28;19916;-62
2022/10/21 13:58:47;;;;;;;;;;;17.80;94.40;;;;;;5057931;28;19916;-61
2022/10/21 14:01:17;;;;;;;;;;;17.70;94.50;;;;;;5057890;28;19908;-61
2022/10/21 14:03:43;;;;;;;;;;;17.70;94.30;;;;;;5058069;28;19968;-61
2022/10/21 14:06:10;;;;;;;;;;;17.70;94.70;;;;;;5057418;28;19956;-62
2022/10/21 14:08:37;;;;;;;;;;;17.60;94.90;;;;;;5057517;28;19940;-61
2022/10/21 14:11:16;;;;;;;;;;;17.50;95.90;;;;;;5057989;28;19963;-61
2022/10/21 14:13:42;;;;;;;;;;;17.40;95.70;;;;;;5061774;28;19919;-60
2022/10/21 14:16:08;;;;;;;;;;;17.40;95.80;;;;;;5064413;28;19956;-61
2022/10/21 14:18:38;;;;;;;;;;;17.40;96.20;;;;;;5064056;28;19928;-61
2022/10/21 14:21:05;;;;;;;;;;;17.40;96.00;;;;;;5064278;28;19996;-61
2022/10/21 14:23:30;;;;;;;;;;;17.40;95.60;;;;;;5064130;28;19908;-61
2022/10/21 14:26:04;;;;;;;;;;;17.30;96.00;;;;;;5062769;28;19916;-61